Time;durP1;ratioP1;P1;durP2;ratioP2;P2;SDS_P1;SDS_P2;PMS_P1;PMS_P2;Temp;Humidity;BMP_temperature;BMP_pressure;BME280_temperature;BME280_humidity;BME280_pressure;Samples;Min_cycle;Max_cycle;Signal;HPM_P1;HPM_P2
2022/11/10 00:01:46;;;;;;;37.73;25.62;;;;;;;6.87;74.14;101319.22;1662825;85;21082;-73
2022/11/10 00:04:31;;;;;;;38.67;24.60;;;;;;;6.93;74.12;101322.34;1666586;84;21201;-73
2022/11/10 00:07:16;;;;;;;34.67;24.70;;;;;;;7.01;74.06;101318.13;1659467;85;21115;-75
2022/11/10 00:10:00;;;;;;;33.42;24.45;;;;;;;7.26;73.37;101311.48;1648083;85;21241;-74
2022/11/10 00:12:47;;;;;;;34.43;24.25;;;;;;;7.31;73.07;101305.55;1662663;84;21087;-72
2022/11/10 00:18:37;;;;;;;34.58;24.20;;;;;;;7.28;72.56;101304.94;1662197;84;21071;-74
2022/11/10 00:21:23;;;;;;;33.95;24.75;;;;;;;7.27;72.32;101298.00;1661773;85;21763;-73
2022/11/10 00:24:08;;;;;;;35.95;24.63;;;;;;;7.02;72.64;101305.13;1669926;84;21144;-74
2022/11/10 00:26:55;;;;;;;34.43;24.00;;;;;;;6.92;72.75;101300.29;1642535;85;21046;-73
2022/11/10 00:29:41;;;;;;;35.15;24.25;;;;;;;6.87;72.73;101296.64;1660464;84;21112;-74
2022/11/10 00:32:25;;;;;;;33.20;23.87;;;;;;;6.82;72.70;101294.64;1666825;85;21708;-73
2022/11/10 00:35:10;;;;;;;31.23;22.75;;;;;;;6.77;72.65;101289.95;1662569;84;21062;-74
2022/11/10 00:37:55;;;;;;;30.45;22.32;;;;;;;6.72;72.66;101300.93;1657435;84;21268;-73
2022/11/10 00:40:40;;;;;;;33.25;21.75;;;;;;;6.68;72.64;101299.22;1650116;84;21078;-75
2022/11/10 00:43:29;;;;;;;31.68;22.13;;;;;;;6.66;72.71;101295.14;1706417;82;21562;-73
2022/11/10 00:46:14;;;;;;;32.60;21.85;;;;;;;6.63;72.71;101288.41;1702427;81;21015;-72
2022/11/10 00:48:59;;;;;;;29.52;20.68;;;;;;;6.62;72.74;101281.48;1694726;82;21102;-72
2022/11/10 00:51:46;;;;;;;28.32;20.70;;;;;;;6.64;72.78;101285.23;1697822;81;21069;-72
2022/11/10 00:54:31;;;;;;;30.77;21.73;;;;;;;6.63;72.80;101284.42;1694914;82;21075;-72
2022/11/10 00:57:15;;;;;;;28.77;20.60;;;;;;;6.66;72.81;101287.17;1723210;81;21023;-72
2022/11/10 01:00:00;;;;;;;29.32;20.40;;;;;;;6.68;72.80;101282.45;1713634;82;21111;-73
2022/11/10 01:02:45;;;;;;;31.17;21.25;;;;;;;6.68;72.78;101276.66;1699802;82;21071;-72
2022/11/10 01:05:36;;;;;;;30.70;21.00;;;;;;;6.69;72.70;101275.62;1697610;81;22406;-73
2022/11/10 01:08:22;;;;;;;29.25;19.92;;;;;;;6.71;72.63;101274.06;1703636;81;20936;-72
2022/11/10 01:11:12;;;;;;;29.05;20.17;;;;;;;6.73;72.56;101272.02;1724424;80;21243;-72
2022/11/10 01:13:58;;;;;;;28.17;18.85;;;;;;;6.96;71.95;101262.16;1703405;82;21085;-73
2022/11/10 01:16:44;;;;;;;30.97;20.25;;;;;;;7.02;71.65;101258.65;1692322;81;21057;-73
2022/11/10 01:19:29;;;;;;;31.37;20.12;;;;;;;7.04;71.48;101256.57;1688024;82;21333;-72
2022/11/10 01:22:14;;;;;;;28.35;19.60;;;;;;;7.05;71.37;101256.38;1705006;83;21081;-73
2022/11/10 01:24:59;;;;;;;26.55;19.25;;;;;;;7.07;71.35;101260.13;1697614;83;21741;-73
2022/11/10 01:27:45;;;;;;;29.12;19.52;;;;;;;7.09;71.47;101256.75;1713440;83;21009;-73
2022/11/10 01:30:31;;;;;;;27.87;18.98;;;;;;;7.12;71.52;101253.66;1685438;85;20989;-73
2022/11/10 01:33:16;;;;;;;30.68;18.52;;;;;;;7.12;71.52;101258.97;1690501;83;21907;-73
2022/11/10 01:36:01;;;;;;;28.73;18.85;;;;;;;7.16;71.49;101252.19;1698452;83;21041;-73
2022/11/10 01:38:47;;;;;;;28.98;19.20;;;;;;;7.19;71.40;101245.64;1690802;83;21030;-73
2022/11/10 01:41:31;;;;;;;27.90;18.70;;;;;;;7.20;71.27;101249.39;1685426;85;21117;-73
2022/11/10 01:44:20;;;;;;;28.50;19.00;;;;;;;7.25;71.10;101244.25;1686794;83;21061;-72
2022/11/10 01:47:05;;;;;;;28.87;19.50;;;;;;;7.27;71.00;101243.53;1697724;83;21405;-73
2022/11/10 01:49:50;;;;;;;25.12;17.90;;;;;;;7.28;70.87;101249.13;1722647;81;20986;-72
2022/11/10 01:52:35;;;;;;;31.02;19.87;;;;;;;7.28;70.82;101251.79;1735160;82;20972;-72
2022/11/10 01:55:21;;;;;;;28.17;19.25;;;;;;;7.29;70.77;101252.08;1715015;82;21045;-71
2022/11/10 01:58:06;;;;;;;27.17;18.20;;;;;;;7.27;70.73;101254.16;1727681;81;21022;-72
2022/11/10 02:00:51;;;;;;;31.25;21.02;;;;;;;7.26;70.69;101249.86;1709718;82;21057;-72
2022/11/10 02:03:53;;;;;;;30.55;20.37;;;;;;;7.26;70.65;101255.17;1724470;82;21098;-72
2022/11/10 02:06:41;;;;;;;22.27;14.90;;;;;;;7.24;70.62;101263.89;1723714;82;21035;-73
2022/11/10 02:09:26;;;;;;;30.05;19.90;;;;;;;7.20;70.56;101257.36;1738906;82;21032;-73
2022/11/10 02:12:12;;;;;;;30.55;20.92;;;;;;;7.17;70.59;101261.81;1738202;82;21417;-73
2022/11/10 02:14:57;;;;;;;31.33;20.55;;;;;;;7.16;70.64;101265.48;1709367;83;21212;-73
2022/11/10 02:17:46;;;;;;;28.62;19.85;;;;;;;7.15;70.73;101265.19;1697364;82;21557;-73
2022/11/10 02:20:31;;;;;;;29.60;20.62;;;;;;;7.16;70.80;101265.48;1730777;82;21526;-73
2022/11/10 02:23:34;;;;;;;30.50;20.20;;;;;;;7.17;70.83;101263.14;1705064;82;21045;-72
2022/11/10 02:26:23;;;;;;;31.12;20.97;;;;;;;7.19;70.91;101269.03;1687389;82;21457;-73
2022/11/10 02:29:09;;;;;;;32.28;20.45;;;;;;;7.21;70.98;101273.63;1687847;82;22644;-72
2022/11/10 02:31:54;;;;;;;29.07;19.90;;;;;;;7.21;71.02;101271.48;1688010;83;21076;-72
2022/11/10 02:34:41;;;;;;;28.52;20.62;;;;;;;7.21;71.01;101269.64;1688053;82;20986;-73
2022/11/10 02:37:26;;;;;;;29.92;20.40;;;;;;;7.21;70.91;101270.97;1685465;85;21064;-72
2022/11/10 02:40:11;;;;;;;30.90;20.77;;;;;;;7.20;70.82;101267.98;1691359;82;21057;-71
2022/11/10 02:42:57;;;;;;;30.17;19.82;;;;;;;7.18;70.77;101272.73;1701208;83;21313;-72
2022/11/10 02:45:45;;;;;;;25.72;19.55;;;;;;;7.16;70.69;101273.97;1686942;82;21595;-72
2022/11/10 02:48:31;;;;;;;30.02;19.67;;;;;;;7.13;70.71;101276.53;1688365;83;20982;-73
2022/11/10 02:51:16;;;;;;;28.52;19.67;;;;;;;7.14;70.84;101274.20;1696877;83;21168;-72
2022/11/10 02:54:02;;;;;;;33.80;21.30;;;;;;;7.18;71.02;101279.89;1699290;83;21548;-72
2022/11/10 02:56:49;;;;;;;29.85;20.60;;;;;;;7.20;71.18;101278.62;1687785;83;20922;-72
2022/11/10 02:59:34;;;;;;;30.35;20.85;;;;;;;7.27;71.38;101282.55;1704303;83;21023;-72
2022/11/10 03:02:19;;;;;;;29.40;19.98;;;;;;;7.33;71.59;101277.70;1732917;82;21033;-72
2022/11/10 03:05:05;;;;;;;31.52;21.02;;;;;;;7.41;71.77;101275.30;1697381;82;21016;-72
2022/11/10 03:07:54;;;;;;;29.80;20.17;;;;;;;7.48;71.96;101273.39;1712892;82;20927;-72
2022/11/10 03:10:41;;;;;;;30.77;20.62;;;;;;;7.54;72.10;101269.86;1713755;82;20951;-72
2022/11/10 03:13:26;;;;;;;32.00;22.13;;;;;;;7.61;72.22;101259.97;1750790;82;21052;-71
2022/11/10 03:16:11;;;;;;;29.82;20.50;;;;;;;7.67;72.28;101257.77;1710717;82;21117;-72
2022/11/10 03:18:58;;;;;;;32.05;21.42;;;;;;;7.73;72.34;101260.88;1704382;83;21541;-72
2022/11/10 03:21:43;;;;;;;32.70;20.97;;;;;;;7.80;72.45;101269.28;1718541;82;21116;-72
2022/11/10 03:24:29;;;;;;;31.75;20.60;;;;;;;7.86;72.49;101269.73;1725139;82;21868;-72
2022/11/10 03:27:14;;;;;;;31.90;20.37;;;;;;;7.91;72.57;101253.94;1723197;82;20974;-72
2022/11/10 03:29:59;;;;;;;28.45;19.73;;;;;;;7.97;72.68;101258.38;1721677;82;21060;-73
2022/11/10 03:32:44;;;;;;;28.83;20.43;;;;;;;8.05;72.73;101254.59;1698997;83;21029;-71
2022/11/10 03:35:29;;;;;;;28.95;20.72;;;;;;;8.12;72.77;101260.11;1694013;83;21025;-72
2022/11/10 03:38:14;;;;;;;32.83;21.35;;;;;;;8.19;72.83;101260.87;1696082;82;21282;-72
2022/11/10 03:40:59;;;;;;;33.08;20.37;;;;;;;8.22;72.97;101252.94;1686712;83;21088;-72
2022/11/10 03:43:43;;;;;;;31.80;20.75;;;;;;;8.28;73.03;101248.58;1687493;83;21073;-71
2022/11/10 03:46:29;;;;;;;30.43;19.77;;;;;;;8.34;73.05;101255.66;1711633;83;21073;-72
2022/11/10 03:49:14;;;;;;;29.37;20.80;;;;;;;8.40;73.04;101252.95;1691024;83;21049;-72
2022/11/10 03:51:58;;;;;;;29.30;19.98;;;;;;;8.47;72.98;101254.72;1714628;83;21270;-73
2022/11/10 03:54:43;;;;;;;30.65;20.85;;;;;;;8.51;72.92;101247.89;1689667;82;21017;-73
2022/11/10 03:57:28;;;;;;;31.40;20.45;;;;;;;8.54;72.86;101250.11;1688581;82;21057;-73
2022/11/10 04:00:15;;;;;;;32.35;20.68;;;;;;;8.59;72.79;101246.26;1689774;82;21031;-73
2022/11/10 04:03:00;;;;;;;31.40;19.95;;;;;;;8.62;72.71;101249.27;1688856;83;21485;-73
2022/11/10 04:08:58;;;;;;;33.30;21.00;;;;;;;8.67;72.56;101248.06;1686928;83;21048;-73
2022/11/10 04:17:50;;;;;;;27.00;18.10;;;;;;;8.83;72.30;101245.80;1704319;82;21052;-74
2022/11/10 04:20:35;;;;;;;29.92;20.20;;;;;;;8.87;72.18;101246.95;1689585;83;21114;-73
2022/11/10 04:23:26;;;;;;;27.13;19.80;;;;;;;8.89;72.06;101247.02;1691983;83;20926;-73
2022/11/10 04:26:28;;;;;;;27.40;18.95;;;;;;;8.91;71.91;101250.25;1705252;83;20994;-72
2022/11/10 04:29:16;;;;;;;26.20;18.48;;;;;;;8.94;71.82;101241.00;1692856;82;21064;-73
2022/11/10 04:32:01;;;;;;;27.82;18.70;;;;;;;8.95;71.69;101236.48;1750853;82;21008;-72
2022/11/10 04:34:47;;;;;;;26.85;18.80;;;;;;;8.98;71.57;101232.02;1697163;82;21655;-73
2022/11/10 04:37:32;;;;;;;27.77;19.00;;;;;;;8.99;71.48;101234.48;1689191;83;20994;-73
2022/11/10 04:40:17;;;;;;;27.80;18.80;;;;;;;9.00;71.39;101234.76;1712979;83;21081;-74
2022/11/10 04:43:01;;;;;;;27.40;18.60;;;;;;;9.03;71.27;101236.97;1708476;82;20996;-72
2022/11/10 04:45:46;;;;;;;25.37;18.37;;;;;;;9.02;71.09;101237.20;1713875;82;21053;-73
2022/11/10 04:48:34;;;;;;;26.20;18.00;;;;;;;9.02;71.05;101241.20;1704107;82;22020;-72
2022/11/10 04:51:22;;;;;;;25.92;17.52;;;;;;;9.03;70.94;101244.95;1687670;83;21041;-73
2022/11/10 04:54:06;;;;;;;26.97;17.92;;;;;;;9.06;70.87;101247.16;1702658;83;21090;-73
2022/11/10 04:56:53;;;;;;;26.07;17.62;;;;;;;9.06;70.79;101251.16;1706893;82;21655;-72
2022/11/10 04:59:40;;;;;;;24.75;17.52;;;;;;;9.09;70.73;101249.38;1688178;83;21084;-72
2022/11/10 05:02:24;;;;;;;25.25;17.45;;;;;;;9.12;70.64;101252.11;1690188;82;21178;-72
2022/11/10 05:05:10;;;;;;;25.52;17.02;;;;;;;9.14;70.59;101248.67;1687070;83;20969;-74
2022/11/10 05:07:55;;;;;;;25.95;17.40;;;;;;;9.16;70.50;101251.93;1686040;85;21009;-72
2022/11/10 05:10:40;;;;;;;26.65;16.15;;;;;;;9.14;70.39;101253.48;1686085;85;21497;-73
2022/11/10 05:13:25;;;;;;;24.92;16.40;;;;;;;9.15;70.35;101255.65;1686856;83;21057;-73
2022/11/10 05:16:10;;;;;;;25.68;16.15;;;;;;;9.17;70.29;101265.54;1690190;83;21245;-73
2022/11/10 05:18:57;;;;;;;24.23;17.07;;;;;;;9.18;70.24;101257.86;1702754;83;21057;-71
2022/11/10 05:21:42;;;;;;;24.90;17.12;;;;;;;9.20;70.20;101263.75;1684622;85;21168;-73
2022/11/10 05:24:26;;;;;;;24.67;17.35;;;;;;;9.22;70.12;101273.67;1685108;83;21072;-72
2022/11/10 05:27:12;;;;;;;21.95;15.70;;;;;;;9.24;70.08;101274.76;1684797;83;21061;-73
2022/11/10 05:29:57;;;;;;;23.10;16.32;;;;;;;9.28;70.03;101279.42;1695535;82;21906;-72
2022/11/10 05:32:42;;;;;;;25.23;16.93;;;;;;;9.31;69.98;101276.30;1697545;83;20952;-73
2022/11/10 05:35:27;;;;;;;23.60;16.40;;;;;;;9.32;69.87;101281.91;1693205;83;21447;-73
2022/11/10 05:38:12;;;;;;;23.62;16.02;;;;;;;9.36;69.86;101288.92;1694523;82;21073;-73
2022/11/10 05:40:57;;;;;;;25.32;16.23;;;;;;;9.39;69.79;101291.94;1690196;83;21065;-73
2022/11/10 05:43:42;;;;;;;24.07;16.15;;;;;;;9.42;69.69;101289.34;1713318;83;21271;-73
2022/11/10 05:46:28;;;;;;;21.02;14.23;;;;;;;9.43;69.56;101294.95;1700173;83;21481;-73
2022/11/10 05:49:13;;;;;;;23.83;15.08;;;;;;;9.45;69.49;101294.20;1693091;82;21034;-73
2022/11/10 05:51:58;;;;;;;22.10;15.25;;;;;;;9.47;69.43;101294.77;1686946;83;21521;-73
2022/11/10 05:54:44;;;;;;;23.62;15.78;;;;;;;9.51;69.37;101297.78;1687394;83;21624;-72
2022/11/10 05:57:29;;;;;;;25.50;16.50;;;;;;;9.54;69.29;101304.83;1686527;85;21211;-74
2022/11/10 06:00:16;;;;;;;22.65;15.65;;;;;;;9.57;69.21;101308.34;1688463;83;21105;-73
2022/11/10 06:03:13;;;;;;;21.82;14.45;;;;;;;9.58;69.11;101305.17;1704053;83;21670;-73
2022/11/10 06:05:59;;;;;;;20.48;14.35;;;;;;;9.59;69.02;101310.26;1696597;83;21487;-73
2022/11/10 06:08:43;;;;;;;20.30;14.85;;;;;;;9.59;68.95;101312.93;1686503;83;21806;-73
2022/11/10 06:11:28;;;;;;;23.95;15.43;;;;;;;9.62;68.92;101313.80;1687832;83;21985;-72
2022/11/10 06:14:15;;;;;;;20.37;14.90;;;;;;;9.69;68.89;101315.55;1697558;82;21552;-74
2022/11/10 06:17:01;;;;;;;20.05;14.40;;;;;;;9.73;68.85;101316.17;1718641;81;21082;-74
2022/11/10 06:19:46;;;;;;;19.05;14.30;;;;;;;9.81;68.78;101323.03;1689882;83;21065;-74
2022/11/10 06:22:31;;;;;;;23.35;15.03;;;;;;;9.83;68.64;101319.06;1691174;83;20950;-73
2022/11/10 06:25:17;;;;;;;21.73;14.73;;;;;;;9.88;68.58;101324.25;1700044;83;21274;-74
2022/11/10 06:28:02;;;;;;;20.95;14.73;;;;;;;9.91;68.43;101323.78;1688206;83;21481;-73
2022/11/10 06:30:48;;;;;;;20.17;14.40;;;;;;;9.96;68.34;101322.02;1687441;83;21143;-74
2022/11/10 06:33:34;;;;;;;20.00;14.87;;;;;;;10.03;68.30;101318.69;1694099;83;21615;-74
2022/11/10 06:36:21;;;;;;;19.45;14.10;;;;;;;10.11;68.26;101318.88;1687983;83;21001;-75
2022/11/10 06:39:06;;;;;;;19.75;14.47;;;;;;;10.20;68.16;101315.30;1695576;83;21124;-73
2022/11/10 06:41:51;;;;;;;19.87;14.13;;;;;;;10.28;68.00;101316.31;1686821;83;20942;-75
2022/11/10 06:44:35;;;;;;;20.02;14.20;;;;;;;10.35;67.80;101318.85;1699563;83;21208;-73
2022/11/10 06:47:21;;;;;;;20.10;14.43;;;;;;;10.39;67.63;101323.47;1689649;83;21125;-73
2022/11/10 07:40:10;;;;;;;18.83;13.23;;;;;;;10.84;69.44;101329.41;1782275;79;22698;-69
2022/11/10 07:42:55;;;;;;;18.20;13.50;;;;;;;10.91;68.71;101335.95;1792219;78;21054;-70
2022/11/10 07:45:41;;;;;;;18.63;13.13;;;;;;;10.97;68.17;101329.64;1811133;77;21581;-69
2022/11/10 07:48:25;;;;;;;16.73;12.85;;;;;;;11.08;67.75;101329.29;1755985;81;21597;-68
2022/11/10 07:51:11;;;;;;;18.50;13.17;;;;;;;11.17;67.34;101329.19;1734547;81;20979;-69
2022/11/10 07:53:56;;;;;;;18.47;13.33;;;;;;;11.26;66.94;101326.41;1743863;80;21397;-68
2022/11/10 07:56:42;;;;;;;16.93;12.73;;;;;;;11.34;66.56;101329.99;1769842;79;22341;-69
2022/11/10 07:59:27;;;;;;;17.43;12.57;;;;;;;11.42;66.22;101333.62;1768957;79;21805;-69
2022/11/10 08:02:13;;;;;;;19.00;13.23;;;;;;;11.47;65.65;101326.99;1645952;79;10000023;-69
2022/11/10 08:04:58;;;;;;;16.83;11.93;;;;;;;11.54;65.51;101334.86;1772857;80;21105;-69
2022/11/10 08:07:43;;;;;;;18.03;12.93;;;;;;;11.66;65.33;101330.77;1727902;81;21290;-68
2022/11/10 08:10:29;;;;;;;19.20;12.60;;;;;;;11.80;64.81;101325.88;1770114;80;21565;-68
2022/11/10 08:13:15;;;;;;;17.20;12.30;;;;;;;11.89;64.40;101325.77;1771921;80;21308;-68
2022/11/10 08:16:01;;;;;;;17.83;12.33;;;;;;;11.98;64.02;101329.66;1768812;80;21261;-68
2022/11/10 08:18:48;;;;;;;20.07;13.40;;;;;;;12.09;63.75;101333.27;1731225;81;21835;-69
2022/11/10 08:21:34;;;;;;;17.67;13.20;;;;;;;12.14;63.49;101331.48;1761974;80;21323;-69
2022/11/10 08:24:19;;;;;;;17.17;12.37;;;;;;;12.21;63.15;101336.65;1742986;81;21350;-69
2022/11/10 08:27:05;;;;;;;16.67;12.20;;;;;;;12.30;62.78;101337.81;1743570;81;21287;-69
2022/11/10 08:29:49;;;;;;;16.73;11.30;;;;;;;12.35;62.40;101339.23;1769890;80;21300;-69
2022/11/10 08:32:35;;;;;;;15.87;11.17;;;;;;;12.42;62.06;101341.19;1763808;80;21246;-68
2022/11/10 08:35:22;;;;;;;15.87;10.83;;;;;;;12.48;61.45;101343.94;1760465;79;21099;-69
2022/11/10 08:38:15;;;;;;;18.00;10.67;;;;;;;12.48;61.20;101342.59;1767510;79;21936;-67
2022/11/10 08:41:01;;;;;;;17.93;11.73;;;;;;;12.48;60.77;101337.23;1764992;79;21273;-68
2022/11/10 08:43:46;;;;;;;17.40;11.03;;;;;;;12.50;60.78;101342.61;1766828;80;21218;-68
2022/11/10 08:46:33;;;;;;;16.43;10.60;;;;;;;12.54;60.61;101346.42;1759793;79;21321;-68
2022/11/10 08:49:18;;;;;;;12.67;10.20;;;;;;;12.55;60.54;101343.20;1740539;79;21393;-68
2022/11/10 08:52:03;;;;;;;15.33;11.13;;;;;;;12.54;60.23;101344.28;1766485;80;21282;-68
2022/11/10 08:54:48;;;;;;;14.73;10.97;;;;;;;12.53;60.35;101344.78;1778874;80;21301;-69
2022/11/10 08:57:33;;;;;;;18.67;11.73;;;;;;;12.55;60.47;101349.38;1762189;80;21326;-69
2022/11/10 09:00:19;;;;;;;14.17;11.30;;;;;;;12.58;60.39;101345.39;1753241;80;21312;-69
2022/11/10 09:03:09;;;;;;;12.87;10.67;;;;;;;12.58;60.18;101343.52;1777452;80;21363;-68
2022/11/10 09:05:54;;;;;;;13.53;10.20;;;;;;;12.55;60.28;101340.53;1756949;80;21152;-69
2022/11/10 09:08:39;;;;;;;14.73;10.83;;;;;;;12.56;60.30;101344.28;1750357;80;21311;-69
2022/11/10 09:11:24;;;;;;;14.10;9.57;;;;;;;12.56;60.27;101337.59;1781980;80;21181;-70
2022/11/10 09:14:11;;;;;;;15.07;10.77;;;;;;;12.57;60.20;101334.38;1751373;82;21212;-69
2022/11/10 09:16:56;;;;;;;12.50;9.80;;;;;;;12.55;60.03;101331.95;1752168;82;21334;-68
2022/11/10 09:19:41;;;;;;;12.27;9.37;;;;;;;12.57;60.22;101333.03;1752280;81;21781;-70
2022/11/10 09:22:27;;;;;;;12.90;10.03;;;;;;;12.58;60.25;101328.78;1763968;80;21298;-70
2022/11/10 09:25:11;;;;;;;14.37;10.17;;;;;;;12.61;60.31;101324.26;1765565;80;21246;-70
2022/11/10 09:27:56;;;;;;;13.00;10.80;;;;;;;12.64;60.39;101327.78;1768717;80;21712;-70
2022/11/10 09:30:44;;;;;;;12.30;9.80;;;;;;;12.70;60.35;101333.17;1780598;80;21285;-69
2022/11/10 09:33:28;;;;;;;13.03;9.90;;;;;;;12.72;60.06;101334.55;1734393;81;22146;-70
2022/11/10 09:36:14;;;;;;;13.47;10.60;;;;;;;12.68;60.01;101334.24;1781985;80;21207;-70
2022/11/10 09:38:59;;;;;;;12.63;9.27;;;;;;;12.65;59.94;101333.94;1761618;80;21609;-70
2022/11/10 09:41:44;;;;;;;13.77;10.40;;;;;;;12.63;60.14;101338.73;1755773;80;21239;-70
2022/11/10 09:44:36;;;;;;;13.87;10.87;;;;;;;12.61;60.22;101336.31;1758926;80;21245;-70
2022/11/10 09:47:30;;;;;;;11.33;9.23;;;;;;;12.64;60.13;101333.14;1772775;80;21272;-70
2022/11/10 09:50:23;;;;;;;13.00;10.60;;;;;;;12.59;60.10;101335.75;1756811;80;21799;-70
2022/11/10 09:53:15;;;;;;;12.60;10.40;;;;;;;12.58;60.20;101334.67;1780469;80;21122;-69
2022/11/10 09:56:04;;;;;;;12.43;10.30;;;;;;;12.58;60.27;101331.99;1774722;80;21270;-71
2022/11/10 09:58:49;;;;;;;12.30;9.63;;;;;;;12.61;60.35;101334.98;1780037;80;21812;-70
2022/11/10 10:01:46;;;;;;;13.73;9.57;;;;;;;12.63;60.33;101338.20;1755707;80;22084;-70
2022/11/10 10:04:56;;;;;;;13.97;10.37;;;;;;;12.61;60.35;101339.00;1778215;79;21137;-69
2022/11/10 10:08:02;;;;;;;14.33;10.80;;;;;;;12.55;60.37;101340.00;1770637;80;21346;-70
2022/11/10 10:10:56;;;;;;;15.87;10.60;;;;;;;12.41;60.48;101331.53;1743620;80;21131;-70
2022/11/10 10:14:01;;;;;;;13.10;10.10;;;;;;;12.32;60.84;101338.92;1757547;80;21223;-70
2022/11/10 10:17:23;;;;;;;12.20;8.87;;;;;;;12.29;61.13;101328.16;1781720;80;21369;-70
2022/11/10 10:20:34;;;;;;;13.90;10.23;;;;;;;12.32;61.19;101334.90;1773509;79;21309;-70
2022/11/10 10:23:36;;;;;;;12.30;9.57;;;;;;;12.27;61.27;101329.47;1630049;79;10000416;-70
2022/11/10 10:26:29;;;;;;;12.73;9.37;;;;;;;12.29;61.37;101336.20;1390139;80;10000432;-70
2022/11/10 10:29:32;;;;;;;15.80;10.57;;;;;;;12.32;61.39;101325.52;1774787;80;21550;-70
2022/11/10 10:32:17;;;;;;;15.93;10.75;;;;;;;12.35;61.40;101323.69;1748466;80;21798;-70
2022/11/10 10:35:02;;;;;;;15.50;11.00;;;;;;;12.35;61.42;101321.01;1770646;80;20959;-70
2022/11/10 10:37:54;;;;;;;15.80;11.30;;;;;;;12.34;61.40;101318.03;1769748;80;21301;-71
2022/11/10 10:40:40;;;;;;;14.27;10.20;;;;;;;12.36;61.39;101316.73;1641221;80;9999696;-70
2022/11/10 10:43:25;;;;;;;14.97;11.27;;;;;;;12.39;61.40;101321.59;1764965;80;21139;-71
2022/11/10 10:46:14;;;;;;;13.00;9.60;;;;;;;12.37;61.32;101321.05;1773501;80;21363;-72
2022/11/10 10:49:20;;;;;;;14.93;10.43;;;;;;;12.31;61.38;101326.59;1755045;80;21315;-70
2022/11/10 10:52:13;;;;;;;14.40;10.53;;;;;;;12.26;61.52;101337.23;1779862;80;21318;-70
2022/11/10 10:55:03;;;;;;;15.83;11.30;;;;;;;12.17;61.66;101330.15;1778120;79;21259;-70
2022/11/10 10:57:51;;;;;;;15.47;11.63;;;;;;;12.16;61.82;101333.89;1765650;80;21956;-69
2022/11/10 11:00:48;;;;;;;16.27;11.77;;;;;;;12.11;61.95;101337.33;1751802;80;21231;-71
2022/11/10 11:03:45;;;;;;;16.53;12.03;;;;;;;12.12;62.11;101338.13;1751845;82;21319;-71
2022/11/10 11:06:32;;;;;;;16.37;11.50;;;;;;;12.09;62.18;101331.39;1752459;80;21298;-71
2022/11/10 11:09:25;;;;;;;18.03;12.30;;;;;;;12.05;62.27;101348.22;1751832;81;21387;-71
2022/11/10 11:12:21;;;;;;;18.83;12.63;;;;;;;12.04;62.41;101343.90;1774834;80;21655;-71
2022/11/10 11:15:27;;;;;;;17.93;11.90;;;;;;;12.01;62.50;101337.70;1766131;80;21781;-70
2022/11/10 11:18:16;;;;;;;17.60;12.43;;;;;;;12.01;62.64;101343.05;1515005;80;10000451;-71
2022/11/10 11:21:16;;;;;;;18.13;12.83;;;;;;;11.97;62.65;101338.19;1403065;80;10000442;-71
2022/11/10 11:24:31;;;;;;;19.03;12.70;;;;;;;11.94;62.73;101333.36;1761426;80;21263;-70
2022/11/10 11:27:37;;;;;;;18.20;13.17;;;;;;;11.93;62.84;101329.57;1770189;80;21350;-71
2022/11/10 11:30:26;;;;;;;15.63;10.87;;;;;;;11.83;62.94;101335.56;1758807;80;21322;-71
2022/11/10 11:33:32;;;;;;;18.73;12.53;;;;;;;11.75;63.24;101340.00;1759717;80;21314;-70
2022/11/10 11:36:54;;;;;;;19.60;12.67;;;;;;;11.69;63.51;101338.30;1778548;80;21106;-70
2022/11/10 11:39:45;;;;;;;19.85;13.35;;;;;;;11.62;63.74;101343.02;1769317;80;21366;-68
2022/11/10 11:42:46;;;;;;;21.33;12.95;;;;;;;11.56;63.97;101349.34;1753418;80;21026;-70
2022/11/10 11:46:05;;;;;;;22.30;14.50;;;;;;;11.50;64.19;101353.80;1756940;80;21579;-71
2022/11/10 11:49:16;;;;;;;18.70;12.07;;;;;;;11.49;64.40;101350.31;1765823;80;21238;-70
2022/11/10 11:52:23;;;;;;;20.37;13.73;;;;;;;11.51;64.52;101357.55;1774565;80;21104;-69
2022/11/10 11:55:26;;;;;;;21.30;14.20;;;;;;;11.51;64.61;101352.20;1777945;80;21278;-70
2022/11/10 11:58:38;;;;;;;21.95;14.38;;;;;;;11.52;64.73;101353.03;1780602;80;21887;-71
2022/11/10 12:01:47;;;;;;;20.73;13.47;;;;;;;11.50;64.81;101349.25;1777136;80;21695;-71
2022/11/10 12:04:43;;;;;;;22.40;14.60;;;;;;;11.49;64.95;101356.20;1531543;80;10000282;-70
2022/11/10 12:08:18;;;;;;;20.03;13.33;;;;;;;11.53;65.01;101357.86;1764433;80;21055;-69
2022/11/10 12:11:15;;;;;;;21.37;14.00;;;;;;;11.58;65.06;101356.08;1719524;83;21315;-70
2022/11/10 12:14:18;;;;;;;21.40;13.87;;;;;;;11.58;65.04;101358.75;1764086;80;21252;-70
2022/11/10 12:17:21;;;;;;;22.47;14.10;;;;;;;11.57;65.10;101355.77;1754864;80;21285;-71
2022/11/10 12:20:30;;;;;;;;;;;;;;;11.53;65.22;101351.17;1781205;80;21162;-70
2022/11/10 12:23:39;;;;;;;21.23;13.37;;;;;;;11.50;65.30;101355.94;1767708;79;20145;-71
2022/11/10 12:26:41;;;;;;;20.90;13.13;;;;;;;11.48;65.46;101351.38;1781889;80;21274;-70
2022/11/10 12:29:53;;;;;;;22.45;14.05;;;;;;;11.50;65.58;101354.59;1782969;80;21334;-69
2022/11/10 12:32:59;;;;;;;20.43;13.50;;;;;;;11.49;65.71;101353.52;1771112;80;21708;-70
2022/11/10 12:35:44;;;;;;;22.30;14.20;;;;;;;11.53;65.86;101355.98;1756125;80;21256;-69
2022/11/10 12:39:22;;;;;;;22.27;13.23;;;;;;;11.57;65.94;101357.64;1778270;80;21158;-70
2022/11/10 12:42:23;;;;;;;22.64;13.28;;;;;;;11.62;65.94;101349.70;1643264;80;10027102;-72
2022/11/10 12:45:25;;;;;;;20.02;13.40;;;;;;;11.68;65.93;101351.38;1768886;80;21012;-69
2022/11/10 12:48:11;;;;;;;19.87;13.25;;;;;;;11.68;65.93;101353.56;1769820;80;21886;-70
2022/11/10 12:51:07;;;;;;;20.50;12.87;;;;;;;11.64;65.93;101350.25;1761634;80;21067;-70
2022/11/10 12:53:52;;;;;;;20.73;13.03;;;;;;;11.61;66.03;101350.74;1762698;80;21312;-71
2022/11/10 12:56:52;;;;;;;21.47;13.43;;;;;;;11.64;66.11;101352.94;1758147;80;21243;-70
2022/11/10 12:59:58;;;;;;;21.17;12.97;;;;;;;11.65;66.17;101349.22;1767324;80;21237;-71
2022/11/10 13:02:44;;;;;;;17.37;11.37;;;;;;;11.66;66.26;101352.98;1776206;80;21251;-71
2022/11/10 13:05:37;;;;;;;20.03;12.90;;;;;;;11.70;66.33;101355.44;1781914;80;21327;-69
2022/11/10 13:08:35;;;;;;;22.17;13.50;;;;;;;11.68;66.30;101356.23;1774323;80;21269;-70
2022/11/10 13:11:32;;;;;;;20.90;13.57;;;;;;;11.70;66.38;101355.44;1776474;80;21035;-70
2022/11/10 13:14:28;;;;;;;23.23;12.87;;;;;;;11.77;66.37;101353.94;1783249;80;21243;-70
2022/11/10 13:17:31;;;;;;;22.87;12.93;;;;;;;11.79;66.34;101346.48;1755632;80;21234;-72
2022/11/10 13:20:50;;;;;;;20.60;12.60;;;;;;;11.83;66.33;101352.95;1772659;80;21340;-70
2022/11/10 13:23:44;;;;;;;22.63;14.00;;;;;;;11.82;66.28;101355.89;1753214;80;21326;-70
2022/11/10 13:26:46;;;;;;;21.33;12.80;;;;;;;11.84;66.31;101349.75;1726960;81;21312;-70
2022/11/10 13:29:45;;;;;;;20.90;13.35;;;;;;;11.84;66.34;101350.58;1724611;81;21368;-71
2022/11/10 13:32:33;;;;;;;20.87;13.67;;;;;;;11.85;66.35;101350.89;1722495;83;21597;-71
2022/11/10 13:35:39;;;;;;;26.63;14.73;;;;;;;11.85;66.34;101350.89;1722868;81;21251;-69
2022/11/10 13:38:40;;;;;;;23.00;13.87;;;;;;;11.83;66.37;101352.16;1730540;81;21345;-70
2022/11/10 13:41:26;;;;;;;24.87;14.87;;;;;;;11.79;66.50;101349.16;1746084;81;21282;-71
2022/11/10 13:44:25;;;;;;;23.40;14.53;;;;;;;11.77;66.58;101355.80;1741851;80;21034;-70
2022/11/10 13:47:41;;;;;;;23.63;14.97;;;;;;;11.80;66.69;101362.01;1739866;80;21248;-71
2022/11/10 13:50:41;;;;;;;23.93;15.23;;;;;;;11.77;66.74;101364.64;1741415;81;21292;-73
2022/11/10 13:54:08;;;;;;;23.77;14.33;;;;;;;11.72;66.90;101370.73;1732520;81;21244;-72
2022/11/10 13:57:36;;;;;;;24.13;15.10;;;;;;;11.72;66.96;101374.75;1736879;82;21195;-70
2022/11/10 14:00:25;;;;;;;23.53;15.30;;;;;;;11.65;67.09;101371.97;1746622;80;21335;-71
2022/11/10 14:03:32;;;;;;;29.03;16.80;;;;;;;11.63;67.29;101382.90;1779950;79;21202;-71